sensor_id;sensor_type;location;lat;lon;timestamp;temperature;humidity
12568;DHT22;6349;50.904;6.136;2024-01-25T00:00:58;8.70;99.90
12568;DHT22;6349;50.904;6.136;2024-01-25T00:02:59;8.70;99.90
12568;DHT22;6349;50.904;6.136;2024-01-25T00:05:00;8.70;99.90
12568;DHT22;6349;50.904;6.136;2024-01-25T00:07:00;8.70;99.90
12568;DHT22;6349;50.904;6.136;2024-01-25T00:09:01;8.70;99.90
12568;DHT22;6349;50.904;6.136;2024-01-25T00:11:02;8.70;99.90
12568;DHT22;6349;50.904;6.136;2024-01-25T00:13:03;8.70;99.90
12568;DHT22;6349;50.904;6.136;2024-01-25T00:15:04;8.70;99.90
12568;DHT22;6349;50.904;6.136;2024-01-25T00:17:05;8.70;99.90
12568;DHT22;6349;50.904;6.136;2024-01-25T00:19:06;8.80;99.90
12568;DHT22;6349;50.904;6.136;2024-01-25T00:21:06;8.70;99.90
12568;DHT22;6349;50.904;6.136;2024-01-25T00:23:07;8.70;99.90
12568;DHT22;6349;50.904;6.136;2024-01-25T00:25:07;8.70;99.90
12568;DHT22;6349;50.904;6.136;2024-01-25T00:27:09;8.70;99.90
12568;DHT22;6349;50.904;6.136;2024-01-25T00:29:09;8.70;99.90
12568;DHT22;6349;50.904;6.136;2024-01-25T00:31:10;8.60;99.90
12568;DHT22;6349;50.904;6.136;2024-01-25T00:33:10;8.60;99.90
12568;DHT22;6349;50.904;6.136;2024-01-25T00:35:12;8.60;99.90
12568;DHT22;6349;50.904;6.136;2024-01-25T00:37:14;8.60;99.90
12568;DHT22;6349;50.904;6.136;2024-01-25T00:39:15;8.60;99.90
12568;DHT22;6349;50.904;6.136;2024-01-25T00:41:18;8.60;99.90
12568;DHT22;6349;50.904;6.136;2024-01-25T00:43:19;8.60;99.90
12568;DHT22;6349;50.904;6.136;2024-01-25T00:45:20;8.60;99.90
12568;DHT22;6349;50.904;6.136;2024-01-25T00:47:22;8.60;99.90
12568;DHT22;6349;50.904;6.136;2024-01-25T00:49:23;8.60;99.90
12568;DHT22;6349;50.904;6.136;2024-01-25T00:51:24;8.60;99.90
12568;DHT22;6349;50.904;6.136;2024-01-25T00:53:24;8.60;99.90
12568;DHT22;6349;50.904;6.136;2024-01-25T00:55:25;8.60;99.90
12568;DHT22;6349;50.904;6.136;2024-01-25T00:57:26;8.60;99.90
12568;DHT22;6349;50.904;6.136;2024-01-25T00:59:27;8.60;99.90
12568;DHT22;6349;50.904;6.136;2024-01-25T01:01:28;8.60;99.90
12568;DHT22;6349;50.904;6.136;2024-01-25T01:03:29;8.50;99.90
12568;DHT22;6349;50.904;6.136;2024-01-25T01:05:30;8.60;99.90
12568;DHT22;6349;50.904;6.136;2024-01-25T01:07:31;8.50;99.90
12568;DHT22;6349;50.904;6.136;2024-01-25T01:09:32;8.50;99.90
12568;DHT22;6349;50.904;6.136;2024-01-25T01:11:32;8.50;99.90
12568;DHT22;6349;50.904;6.136;2024-01-25T01:13:33;8.50;99.90
12568;DHT22;6349;50.904;6.136;2024-01-25T01:15:34;8.50;99.90
12568;DHT22;6349;50.904;6.136;2024-01-25T01:17:34;8.50;99.90
12568;DHT22;6349;50.904;6.136;2024-01-25T01:19:35;8.50;99.90
12568;DHT22;6349;50.904;6.136;2024-01-25T01:21:35;8.50;99.90
12568;DHT22;6349;50.904;6.136;2024-01-25T01:23:36;8.40;99.90
12568;DHT22;6349;50.904;6.136;2024-01-25T01:25:37;8.40;99.90
12568;DHT22;6349;50.904;6.136;2024-01-25T01:27:37;8.40;99.90
12568;DHT22;6349;50.904;6.136;2024-01-25T01:29:38;8.40;99.90
12568;DHT22;6349;50.904;6.136;2024-01-25T01:31:38;8.40;99.90
12568;DHT22;6349;50.904;6.136;2024-01-25T01:33:39;8.40;99.90
12568;DHT22;6349;50.904;6.136;2024-01-25T01:35:39;8.50;99.90
12568;DHT22;6349;50.904;6.136;2024-01-25T01:37:40;8.50;99.90
12568;DHT22;6349;50.904;6.136;2024-01-25T01:39:40;8.50;99.90
12568;DHT22;6349;50.904;6.136;2024-01-25T01:41:41;8.50;99.90
12568;DHT22;6349;50.904;6.136;2024-01-25T01:43:41;8.40;99.90
12568;DHT22;6349;50.904;6.136;2024-01-25T01:45:42;8.50;99.90
12568;DHT22;6349;50.904;6.136;2024-01-25T01:47:43;8.50;99.90
12568;DHT22;6349;50.904;6.136;2024-01-25T01:49:43;8.40;99.90
12568;DHT22;6349;50.904;6.136;2024-01-25T01:51:45;8.40;99.90
12568;DHT22;6349;50.904;6.136;2024-01-25T01:53:46;8.40;99.90
12568;DHT22;6349;50.904;6.136;2024-01-25T01:55:46;8.40;99.90
12568;DHT22;6349;50.904;6.136;2024-01-25T01:57:47;8.40;99.90
12568;DHT22;6349;50.904;6.136;2024-01-25T01:59:48;8.30;99.90
12568;DHT22;6349;50.904;6.136;2024-01-25T02:01:50;8.30;99.90
12568;DHT22;6349;50.904;6.136;2024-01-25T02:03:51;8.30;99.90
12568;DHT22;6349;50.904;6.136;2024-01-25T02:05:52;8.20;99.90
12568;DHT22;6349;50.904;6.136;2024-01-25T02:07:52;8.20;99.90
12568;DHT22;6349;50.904;6.136;2024-01-25T02:09:54;8.20;99.90
12568;DHT22;6349;50.904;6.136;2024-01-25T02:12:02;8.20;99.90
12568;DHT22;6349;50.904;6.136;2024-01-25T02:14:02;8.20;99.90
12568;DHT22;6349;50.904;6.136;2024-01-25T02:16:04;8.20;99.90
12568;DHT22;6349;50.904;6.136;2024-01-25T02:18:05;8.20;99.90
12568;DHT22;6349;50.904;6.136;2024-01-25T02:20:06;8.20;99.90
12568;DHT22;6349;50.904;6.136;2024-01-25T02:22:07;8.20;99.90
12568;DHT22;6349;50.904;6.136;2024-01-25T02:24:07;8.20;99.90
12568;DHT22;6349;50.904;6.136;2024-01-25T02:26:08;8.10;99.90
12568;DHT22;6349;50.904;6.136;2024-01-25T02:28:08;8.10;99.90
12568;DHT22;6349;50.904;6.136;2024-01-25T02:30:09;8.10;99.90
12568;DHT22;6349;50.904;6.136;2024-01-25T02:32:10;8.10;99.90
12568;DHT22;6349;50.904;6.136;2024-01-25T02:34:10;8.10;99.90
12568;DHT22;6349;50.904;6.136;2024-01-25T02:36:11;8.00;99.90
12568;DHT22;6349;50.904;6.136;2024-01-25T02:38:11;8.10;99.90
12568;DHT22;6349;50.904;6.136;2024-01-25T02:40:12;8.10;99.90
12568;DHT22;6349;50.904;6.136;2024-01-25T02:42:13;8.00;99.90
12568;DHT22;6349;50.904;6.136;2024-01-25T02:44:15;8.00;99.90
12568;DHT22;6349;50.904;6.136;2024-01-25T02:46:15;8.00;99.90
12568;DHT22;6349;50.904;6.136;2024-01-25T02:48:16;8.00;99.90
12568;DHT22;6349;50.904;6.136;2024-01-25T02:50:17;7.90;99.90
12568;DHT22;6349;50.904;6.136;2024-01-25T02:52:17;7.90;99.90
12568;DHT22;6349;50.904;6.136;2024-01-25T02:54:18;7.90;99.90
12568;DHT22;6349;50.904;6.136;2024-01-25T02:56:18;8.00;99.90
12568;DHT22;6349;50.904;6.136;2024-01-25T02:58:19;7.90;99.90
12568;DHT22;6349;50.904;6.136;2024-01-25T03:00:20;7.90;99.90
12568;DHT22;6349;50.904;6.136;2024-01-25T03:02:20;7.90;99.90
12568;DHT22;6349;50.904;6.136;2024-01-25T03:04:21;7.90;99.90
12568;DHT22;6349;50.904;6.136;2024-01-25T03:06:21;7.80;99.90
12568;DHT22;6349;50.904;6.136;2024-01-25T03:08:22;7.80;99.90
12568;DHT22;6349;50.904;6.136;2024-01-25T03:10:23;7.90;99.90
12568;DHT22;6349;50.904;6.136;2024-01-25T03:12:24;7.90;99.90
12568;DHT22;6349;50.904;6.136;2024-01-25T03:14:24;7.80;99.90
12568;DHT22;6349;50.904;6.136;2024-01-25T03:16:25;7.80;99.90
12568;DHT22;6349;50.904;6.136;2024-01-25T03:18:26;7.80;99.90
12568;DHT22;6349;50.904;6.136;2024-01-25T03:20:26;7.80;99.90
12568;DHT22;6349;50.904;6.136;2024-01-25T03:22:27;7.70;99.90
12568;DHT22;6349;50.904;6.136;2024-01-25T03:24:27;7.70;99.90
12568;DHT22;6349;50.904;6.136;2024-01-25T03:26:28;7.80;99.90
12568;DHT22;6349;50.904;6.136;2024-01-25T03:28:29;7.70;99.90
12568;DHT22;6349;50.904;6.136;2024-01-25T03:30:29;7.70;99.90
12568;DHT22;6349;50.904;6.136;2024-01-25T03:32:30;7.70;99.90
12568;DHT22;6349;50.904;6.136;2024-01-25T03:34:37;7.60;99.90
12568;DHT22;6349;50.904;6.136;2024-01-25T03:36:38;7.60;99.90
12568;DHT22;6349;50.904;6.136;2024-01-25T03:38:39;7.60;99.90
12568;DHT22;6349;50.904;6.136;2024-01-25T03:40:40;7.60;99.90
12568;DHT22;6349;50.904;6.136;2024-01-25T03:42:41;7.60;99.90
12568;DHT22;6349;50.904;6.136;2024-01-25T03:44:41;7.60;99.90
12568;DHT22;6349;50.904;6.136;2024-01-25T03:46:43;7.60;99.90
12568;DHT22;6349;50.904;6.136;2024-01-25T03:48:43;7.60;99.90
12568;DHT22;6349;50.904;6.136;2024-01-25T03:50:44;7.60;99.90
12568;DHT22;6349;50.904;6.136;2024-01-25T03:52:44;7.50;99.90
12568;DHT22;6349;50.904;6.136;2024-01-25T03:54:45;7.50;99.90
12568;DHT22;6349;50.904;6.136;2024-01-25T03:56:46;7.50;99.90
12568;DHT22;6349;50.904;6.136;2024-01-25T03:58:46;7.40;99.90
12568;DHT22;6349;50.904;6.136;2024-01-25T04:00:47;7.40;99.90
12568;DHT22;6349;50.904;6.136;2024-01-25T04:02:47;7.40;99.90
12568;DHT22;6349;50.904;6.136;2024-01-25T04:04:48;7.40;99.90
12568;DHT22;6349;50.904;6.136;2024-01-25T04:06:50;7.40;99.90
12568;DHT22;6349;50.904;6.136;2024-01-25T04:08:50;7.40;99.90
12568;DHT22;6349;50.904;6.136;2024-01-25T04:10:51;7.30;99.90
12568;DHT22;6349;50.904;6.136;2024-01-25T04:12:51;7.30;99.90
12568;DHT22;6349;50.904;6.136;2024-01-25T04:14:52;7.30;99.90
12568;DHT22;6349;50.904;6.136;2024-01-25T04:16:53;7.30;99.90
12568;DHT22;6349;50.904;6.136;2024-01-25T04:18:53;7.30;99.90
12568;DHT22;6349;50.904;6.136;2024-01-25T04:20:54;7.30;99.90
12568;DHT22;6349;50.904;6.136;2024-01-25T04:22:54;7.30;99.90
12568;DHT22;6349;50.904;6.136;2024-01-25T04:24:56;7.20;99.90
12568;DHT22;6349;50.904;6.136;2024-01-25T04:26:56;7.30;99.90
12568;DHT22;6349;50.904;6.136;2024-01-25T04:28:57;7.20;99.90
12568;DHT22;6349;50.904;6.136;2024-01-25T04:30:57;7.20;99.90
12568;DHT22;6349;50.904;6.136;2024-01-25T04:32:58;7.20;99.90
12568;DHT22;6349;50.904;6.136;2024-01-25T04:34:59;7.20;99.90
12568;DHT22;6349;50.904;6.136;2024-01-25T04:37:00;7.20;99.90
12568;DHT22;6349;50.904;6.136;2024-01-25T04:39:01;7.20;99.90
12568;DHT22;6349;50.904;6.136;2024-01-25T04:41:01;7.10;99.90
12568;DHT22;6349;50.904;6.136;2024-01-25T04:43:02;7.10;99.90
12568;DHT22;6349;50.904;6.136;2024-01-25T04:45:03;7.10;99.90
12568;DHT22;6349;50.904;6.136;2024-01-25T04:47:04;7.10;99.90
12568;DHT22;6349;50.904;6.136;2024-01-25T04:49:04;7.10;99.90
12568;DHT22;6349;50.904;6.136;2024-01-25T04:51:05;7.10;99.90
12568;DHT22;6349;50.904;6.136;2024-01-25T04:53:06;7.10;99.90
12568;DHT22;6349;50.904;6.136;2024-01-25T04:55:06;7.00;99.90
12568;DHT22;6349;50.904;6.136;2024-01-25T04:57:07;7.00;99.90
12568;DHT22;6349;50.904;6.136;2024-01-25T04:59:08;7.00;99.90
12568;DHT22;6349;50.904;6.136;2024-01-25T05:01:09;7.00;99.90
12568;DHT22;6349;50.904;6.136;2024-01-25T05:03:09;7.00;99.90
12568;DHT22;6349;50.904;6.136;2024-01-25T05:05:10;7.00;99.90
12568;DHT22;6349;50.904;6.136;2024-01-25T05:07:10;7.00;99.90
12568;DHT22;6349;50.904;6.136;2024-01-25T05:09:11;7.00;99.90
12568;DHT22;6349;50.904;6.136;2024-01-25T05:11:12;7.00;99.90
12568;DHT22;6349;50.904;6.136;2024-01-25T05:13:12;6.90;99.90
12568;DHT22;6349;50.904;6.136;2024-01-25T05:15:13;7.00;99.90
12568;DHT22;6349;50.904;6.136;2024-01-25T05:17:13;6.90;99.90
12568;DHT22;6349;50.904;6.136;2024-01-25T05:19:14;6.90;99.90
12568;DHT22;6349;50.904;6.136;2024-01-25T05:21:14;7.00;99.90
12568;DHT22;6349;50.904;6.136;2024-01-25T05:23:15;6.90;99.90
12568;DHT22;6349;50.904;6.136;2024-01-25T05:25:16;6.90;99.90
12568;DHT22;6349;50.904;6.136;2024-01-25T05:27:16;6.90;99.90
12568;DHT22;6349;50.904;6.136;2024-01-25T05:29:17;6.90;99.90
12568;DHT22;6349;50.904;6.136;2024-01-25T05:31:17;6.90;99.90
12568;DHT22;6349;50.904;6.136;2024-01-25T05:33:18;6.90;99.90
12568;DHT22;6349;50.904;6.136;2024-01-25T05:35:19;6.90;99.90
12568;DHT22;6349;50.904;6.136;2024-01-25T05:37:19;6.90;99.90
12568;DHT22;6349;50.904;6.136;2024-01-25T05:39:20;6.90;99.90
12568;DHT22;6349;50.904;6.136;2024-01-25T05:41:20;6.90;99.90
12568;DHT22;6349;50.904;6.136;2024-01-25T05:43:21;6.90;99.90
12568;DHT22;6349;50.904;6.136;2024-01-25T05:45:24;6.90;99.90
12568;DHT22;6349;50.904;6.136;2024-01-25T05:47:25;6.80;99.90
12568;DHT22;6349;50.904;6.136;2024-01-25T05:49:25;6.80;99.90
12568;DHT22;6349;50.904;6.136;2024-01-25T05:51:26;6.80;99.90
12568;DHT22;6349;50.904;6.136;2024-01-25T05:53:27;6.80;99.90
12568;DHT22;6349;50.904;6.136;2024-01-25T05:55:28;6.80;99.90
12568;DHT22;6349;50.904;6.136;2024-01-25T05:57:28;6.80;99.90
12568;DHT22;6349;50.904;6.136;2024-01-25T05:59:29;6.80;99.90
12568;DHT22;6349;50.904;6.136;2024-01-25T06:01:30;6.80;99.90
12568;DHT22;6349;50.904;6.136;2024-01-25T06:03:31;6.80;99.90
12568;DHT22;6349;50.904;6.136;2024-01-25T06:05:32;6.80;99.90
12568;DHT22;6349;50.904;6.136;2024-01-25T06:07:32;6.70;99.90
12568;DHT22;6349;50.904;6.136;2024-01-25T06:09:33;6.70;99.90
12568;DHT22;6349;50.904;6.136;2024-01-25T06:11:33;6.70;99.90
12568;DHT22;6349;50.904;6.136;2024-01-25T06:13:35;6.70;99.90
12568;DHT22;6349;50.904;6.136;2024-01-25T06:15:36;6.70;99.90
12568;DHT22;6349;50.904;6.136;2024-01-25T06:17:37;6.70;99.90
12568;DHT22;6349;50.904;6.136;2024-01-25T06:19:38;6.70;99.90
12568;DHT22;6349;50.904;6.136;2024-01-25T06:21:38;6.70;99.90
12568;DHT22;6349;50.904;6.136;2024-01-25T06:23:39;6.70;99.90
12568;DHT22;6349;50.904;6.136;2024-01-25T06:25:39;6.70;99.90
12568;DHT22;6349;50.904;6.136;2024-01-25T06:27:40;6.70;99.90
12568;DHT22;6349;50.904;6.136;2024-01-25T06:29:40;6.70;99.90
12568;DHT22;6349;50.904;6.136;2024-01-25T06:31:42;6.70;99.90
12568;DHT22;6349;50.904;6.136;2024-01-25T06:33:43;6.60;99.90
12568;DHT22;6349;50.904;6.136;2024-01-25T06:35:47;6.60;99.90
12568;DHT22;6349;50.904;6.136;2024-01-25T06:37:48;6.60;99.90
12568;DHT22;6349;50.904;6.136;2024-01-25T06:39:48;6.60;99.90
12568;DHT22;6349;50.904;6.136;2024-01-25T06:41:49;6.60;99.90
12568;DHT22;6349;50.904;6.136;2024-01-25T06:43:49;6.60;99.90
12568;DHT22;6349;50.904;6.136;2024-01-25T06:45:50;6.50;99.90
12568;DHT22;6349;50.904;6.136;2024-01-25T06:47:51;6.50;99.90
12568;DHT22;6349;50.904;6.136;2024-01-25T06:49:51;6.50;99.90
12568;DHT22;6349;50.904;6.136;2024-01-25T06:51:52;6.50;99.90
12568;DHT22;6349;50.904;6.136;2024-01-25T06:53:52;6.40;99.90
12568;DHT22;6349;50.904;6.136;2024-01-25T06:55:53;6.40;99.90
12568;DHT22;6349;50.904;6.136;2024-01-25T06:57:53;6.30;99.90
12568;DHT22;6349;50.904;6.136;2024-01-25T06:59:54;6.30;99.90
12568;DHT22;6349;50.904;6.136;2024-01-25T07:01:54;6.20;99.90
12568;DHT22;6349;50.904;6.136;2024-01-25T07:03:55;6.20;99.90
12568;DHT22;6349;50.904;6.136;2024-01-25T07:05:56;6.20;99.90
12568;DHT22;6349;50.904;6.136;2024-01-25T07:07:56;6.10;99.90
12568;DHT22;6349;50.904;6.136;2024-01-25T07:09:57;6.00;99.90
12568;DHT22;6349;50.904;6.136;2024-01-25T07:11:57;6.00;99.90
12568;DHT22;6349;50.904;6.136;2024-01-25T07:13:58;5.90;99.90
12568;DHT22;6349;50.904;6.136;2024-01-25T07:15:58;5.90;99.90
12568;DHT22;6349;50.904;6.136;2024-01-25T07:17:59;5.90;99.90
12568;DHT22;6349;50.904;6.136;2024-01-25T07:20:00;5.90;99.90
12568;DHT22;6349;50.904;6.136;2024-01-25T07:22:00;5.80;99.90
12568;DHT22;6349;50.904;6.136;2024-01-25T07:24:02;5.80;99.90
12568;DHT22;6349;50.904;6.136;2024-01-25T07:26:04;5.80;99.90
12568;DHT22;6349;50.904;6.136;2024-01-25T07:28:05;5.80;99.90
12568;DHT22;6349;50.904;6.136;2024-01-25T07:30:07;5.90;99.90
12568;DHT22;6349;50.904;6.136;2024-01-25T07:32:09;5.90;99.90
12568;DHT22;6349;50.904;6.136;2024-01-25T07:34:09;6.00;99.90
12568;DHT22;6349;50.904;6.136;2024-01-25T07:36:10;6.00;99.90
12568;DHT22;6349;50.904;6.136;2024-01-25T07:38:14;5.90;99.90
12568;DHT22;6349;50.904;6.136;2024-01-25T07:40:14;6.00;99.90
12568;DHT22;6349;50.904;6.136;2024-01-25T07:42:15;5.90;99.90
12568;DHT22;6349;50.904;6.136;2024-01-25T07:44:15;5.90;99.90
12568;DHT22;6349;50.904;6.136;2024-01-25T07:46:17;5.90;99.90
12568;DHT22;6349;50.904;6.136;2024-01-25T07:48:17;5.90;99.90
12568;DHT22;6349;50.904;6.136;2024-01-25T07:50:18;6.00;99.90
12568;DHT22;6349;50.904;6.136;2024-01-25T07:52:21;6.00;99.90
12568;DHT22;6349;50.904;6.136;2024-01-25T07:54:22;6.10;99.90
12568;DHT22;6349;50.904;6.136;2024-01-25T07:56:22;6.10;99.90
12568;DHT22;6349;50.904;6.136;2024-01-25T07:58:23;6.20;99.90
12568;DHT22;6349;50.904;6.136;2024-01-25T08:00:24;6.20;99.90
12568;DHT22;6349;50.904;6.136;2024-01-25T08:02:24;6.20;99.90
12568;DHT22;6349;50.904;6.136;2024-01-25T08:04:25;6.20;99.90
12568;DHT22;6349;50.904;6.136;2024-01-25T08:06:25;6.30;99.90
12568;DHT22;6349;50.904;6.136;2024-01-25T08:08:29;6.30;99.90
12568;DHT22;6349;50.904;6.136;2024-01-25T08:10:29;6.30;99.90
12568;DHT22;6349;50.904;6.136;2024-01-25T08:12:30;6.30;99.90
12568;DHT22;6349;50.904;6.136;2024-01-25T08:14:31;6.30;99.90
12568;DHT22;6349;50.904;6.136;2024-01-25T08:16:32;6.30;99.90
12568;DHT22;6349;50.904;6.136;2024-01-25T08:18:32;6.30;99.90
12568;DHT22;6349;50.904;6.136;2024-01-25T08:20:33;6.30;99.90
12568;DHT22;6349;50.904;6.136;2024-01-25T08:22:35;6.30;99.90
12568;DHT22;6349;50.904;6.136;2024-01-25T08:24:36;6.30;99.90
12568;DHT22;6349;50.904;6.136;2024-01-25T08:26:36;6.30;99.90
12568;DHT22;6349;50.904;6.136;2024-01-25T08:28:41;6.40;99.90
12568;DHT22;6349;50.904;6.136;2024-01-25T08:30:43;6.40;99.90
12568;DHT22;6349;50.904;6.136;2024-01-25T08:32:44;6.40;99.90
12568;DHT22;6349;50.904;6.136;2024-01-25T08:34:45;6.40;99.90
12568;DHT22;6349;50.904;6.136;2024-01-25T08:36:45;6.50;99.90
12568;DHT22;6349;50.904;6.136;2024-01-25T08:38:46;6.50;99.90
12568;DHT22;6349;50.904;6.136;2024-01-25T08:40:46;6.60;99.90
12568;DHT22;6349;50.904;6.136;2024-01-25T08:42:47;6.60;99.90
12568;DHT22;6349;50.904;6.136;2024-01-25T08:44:48;6.50;99.90
12568;DHT22;6349;50.904;6.136;2024-01-25T08:46:51;6.70;99.90
12568;DHT22;6349;50.904;6.136;2024-01-25T08:48:52;6.70;99.90
12568;DHT22;6349;50.904;6.136;2024-01-25T08:50:52;6.70;99.90
12568;DHT22;6349;50.904;6.136;2024-01-25T08:52:54;6.70;99.90
12568;DHT22;6349;50.904;6.136;2024-01-25T08:54:55;6.70;99.90
12568;DHT22;6349;50.904;6.136;2024-01-25T08:56:56;6.80;99.90
12568;DHT22;6349;50.904;6.136;2024-01-25T08:58:56;6.80;99.90
12568;DHT22;6349;50.904;6.136;2024-01-25T09:00:57;6.80;99.90
12568;DHT22;6349;50.904;6.136;2024-01-25T09:02:58;6.90;99.90
12568;DHT22;6349;50.904;6.136;2024-01-25T09:04:58;6.90;99.90
12568;DHT22;6349;50.904;6.136;2024-01-25T09:06:59;6.90;99.90
12568;DHT22;6349;50.904;6.136;2024-01-25T09:09:00;6.90;99.90
12568;DHT22;6349;50.904;6.136;2024-01-25T09:11:01;7.00;99.90
12568;DHT22;6349;50.904;6.136;2024-01-25T09:13:01;7.00;99.90
12568;DHT22;6349;50.904;6.136;2024-01-25T09:15:02;7.00;99.90
12568;DHT22;6349;50.904;6.136;2024-01-25T09:17:03;7.00;99.90
12568;DHT22;6349;50.904;6.136;2024-01-25T09:19:04;7.00;99.90
12568;DHT22;6349;50.904;6.136;2024-01-25T09:21:05;7.00;99.90
12568;DHT22;6349;50.904;6.136;2024-01-25T09:23:06;7.00;99.90
12568;DHT22;6349;50.904;6.136;2024-01-25T09:25:06;7.00;99.90
12568;DHT22;6349;50.904;6.136;2024-01-25T09:27:07;7.00;99.90
12568;DHT22;6349;50.904;6.136;2024-01-25T09:29:08;7.00;99.90
12568;DHT22;6349;50.904;6.136;2024-01-25T09:31:09;7.10;99.90
12568;DHT22;6349;50.904;6.136;2024-01-25T09:33:10;7.10;99.90
12568;DHT22;6349;50.904;6.136;2024-01-25T09:35:11;7.20;99.90
12568;DHT22;6349;50.904;6.136;2024-01-25T09:37:11;7.20;99.90
12568;DHT22;6349;50.904;6.136;2024-01-25T09:39:12;7.20;99.90
12568;DHT22;6349;50.904;6.136;2024-01-25T09:41:13;7.20;99.90
12568;DHT22;6349;50.904;6.136;2024-01-25T09:43:14;7.20;99.90
12568;DHT22;6349;50.904;6.136;2024-01-25T09:45:17;7.20;99.90
12568;DHT22;6349;50.904;6.136;2024-01-25T09:47:18;7.20;99.90
12568;DHT22;6349;50.904;6.136;2024-01-25T09:49:21;7.30;99.90
12568;DHT22;6349;50.904;6.136;2024-01-25T09:51:23;7.30;99.90
12568;DHT22;6349;50.904;6.136;2024-01-25T09:53:24;7.30;99.90
12568;DHT22;6349;50.904;6.136;2024-01-25T09:55:26;7.30;99.90
12568;DHT22;6349;50.904;6.136;2024-01-25T09:57:28;7.30;99.90
12568;DHT22;6349;50.904;6.136;2024-01-25T09:59:30;7.40;99.90
12568;DHT22;6349;50.904;6.136;2024-01-25T10:01:31;7.40;99.90
12568;DHT22;6349;50.904;6.136;2024-01-25T10:03:31;7.50;99.90
12568;DHT22;6349;50.904;6.136;2024-01-25T10:05:32;7.50;99.90
12568;DHT22;6349;50.904;6.136;2024-01-25T10:07:41;7.50;99.90
12568;DHT22;6349;50.904;6.136;2024-01-25T10:09:42;7.60;99.90
12568;DHT22;6349;50.904;6.136;2024-01-25T10:11:42;7.60;99.90
12568;DHT22;6349;50.904;6.136;2024-01-25T10:13:44;7.70;99.90
12568;DHT22;6349;50.904;6.136;2024-01-25T10:15:45;7.70;99.90
12568;DHT22;6349;50.904;6.136;2024-01-25T10:17:47;7.70;99.90
12568;DHT22;6349;50.904;6.136;2024-01-25T10:19:47;7.80;99.90
12568;DHT22;6349;50.904;6.136;2024-01-25T10:21:49;7.80;99.90
12568;DHT22;6349;50.904;6.136;2024-01-25T10:23:50;7.80;99.90
12568;DHT22;6349;50.904;6.136;2024-01-25T10:25:51;7.80;99.90
12568;DHT22;6349;50.904;6.136;2024-01-25T10:27:52;7.90;99.90
12568;DHT22;6349;50.904;6.136;2024-01-25T10:29:52;7.90;99.90
12568;DHT22;6349;50.904;6.136;2024-01-25T10:31:53;7.90;99.90
12568;DHT22;6349;50.904;6.136;2024-01-25T10:33:54;7.90;99.90
12568;DHT22;6349;50.904;6.136;2024-01-25T10:35:56;8.00;99.90
12568;DHT22;6349;50.904;6.136;2024-01-25T10:38:02;8.00;99.90
12568;DHT22;6349;50.904;6.136;2024-01-25T10:40:04;8.00;99.90
12568;DHT22;6349;50.904;6.136;2024-01-25T10:42:05;8.00;99.90
12568;DHT22;6349;50.904;6.136;2024-01-25T10:44:07;8.00;99.90
12568;DHT22;6349;50.904;6.136;2024-01-25T10:46:08;8.10;99.90
12568;DHT22;6349;50.904;6.136;2024-01-25T10:48:09;8.10;99.90
12568;DHT22;6349;50.904;6.136;2024-01-25T10:50:12;8.20;99.90
12568;DHT22;6349;50.904;6.136;2024-01-25T10:52:14;8.20;99.90
12568;DHT22;6349;50.904;6.136;2024-01-25T10:54:15;8.20;99.90
12568;DHT22;6349;50.904;6.136;2024-01-25T10:56:16;8.30;99.90
12568;DHT22;6349;50.904;6.136;2024-01-25T10:58:17;8.30;99.90
12568;DHT22;6349;50.904;6.136;2024-01-25T11:00:17;8.30;99.90
12568;DHT22;6349;50.904;6.136;2024-01-25T11:02:18;8.30;99.90
12568;DHT22;6349;50.904;6.136;2024-01-25T11:04:23;8.40;99.90
12568;DHT22;6349;50.904;6.136;2024-01-25T11:06:27;8.40;99.90
12568;DHT22;6349;50.904;6.136;2024-01-25T11:08:28;8.40;99.90
12568;DHT22;6349;50.904;6.136;2024-01-25T11:10:28;8.40;99.90
12568;DHT22;6349;50.904;6.136;2024-01-25T11:12:35;8.40;99.90
12568;DHT22;6349;50.904;6.136;2024-01-25T11:14:37;8.50;99.90
12568;DHT22;6349;50.904;6.136;2024-01-25T11:16:37;8.50;99.90
12568;DHT22;6349;50.904;6.136;2024-01-25T11:18:52;8.50;99.90
12568;DHT22;6349;50.904;6.136;2024-01-25T11:21:00;8.50;99.90
12568;DHT22;6349;50.904;6.136;2024-01-25T11:23:06;8.60;99.90
12568;DHT22;6349;50.904;6.136;2024-01-25T11:25:21;8.70;99.90
12568;DHT22;6349;50.904;6.136;2024-01-25T11:27:21;8.70;99.90
12568;DHT22;6349;50.904;6.136;2024-01-25T11:29:22;8.80;99.90
12568;DHT22;6349;50.904;6.136;2024-01-25T11:31:24;8.80;99.90
12568;DHT22;6349;50.904;6.136;2024-01-25T11:33:25;8.90;99.90
12568;DHT22;6349;50.904;6.136;2024-01-25T11:35:26;8.90;99.90
12568;DHT22;6349;50.904;6.136;2024-01-25T11:37:27;8.90;99.90
12568;DHT22;6349;50.904;6.136;2024-01-25T11:39:28;9.00;99.90
12568;DHT22;6349;50.904;6.136;2024-01-25T11:41:28;9.00;99.90
12568;DHT22;6349;50.904;6.136;2024-01-25T11:43:29;9.00;99.90
12568;DHT22;6349;50.904;6.136;2024-01-25T11:45:30;8.90;99.90
12568;DHT22;6349;50.904;6.136;2024-01-25T11:47:30;9.00;99.90
12568;DHT22;6349;50.904;6.136;2024-01-25T11:49:31;9.00;99.90
12568;DHT22;6349;50.904;6.136;2024-01-25T11:51:32;9.00;99.90
12568;DHT22;6349;50.904;6.136;2024-01-25T11:53:32;9.00;99.90
12568;DHT22;6349;50.904;6.136;2024-01-25T11:55:33;9.10;99.90
12568;DHT22;6349;50.904;6.136;2024-01-25T11:57:42;9.10;99.90
12568;DHT22;6349;50.904;6.136;2024-01-25T11:59:43;9.10;99.90
12568;DHT22;6349;50.904;6.136;2024-01-25T12:01:46;9.10;99.90
12568;DHT22;6349;50.904;6.136;2024-01-25T12:03:46;9.20;99.90
12568;DHT22;6349;50.904;6.136;2024-01-25T12:05:47;9.20;99.90
12568;DHT22;6349;50.904;6.136;2024-01-25T12:07:48;9.30;99.90
12568;DHT22;6349;50.904;6.136;2024-01-25T12:10:05;9.30;99.90
12568;DHT22;6349;50.904;6.136;2024-01-25T12:12:07;9.30;99.90
12568;DHT22;6349;50.904;6.136;2024-01-25T12:14:09;9.40;99.90
12568;DHT22;6349;50.904;6.136;2024-01-25T12:16:12;9.40;99.90
12568;DHT22;6349;50.904;6.136;2024-01-25T12:18:14;9.50;99.90
12568;DHT22;6349;50.904;6.136;2024-01-25T12:20:16;9.50;99.90
12568;DHT22;6349;50.904;6.136;2024-01-25T12:22:21;9.50;99.90
12568;DHT22;6349;50.904;6.136;2024-01-25T12:24:22;9.60;99.90
12568;DHT22;6349;50.904;6.136;2024-01-25T12:26:22;9.60;99.90
12568;DHT22;6349;50.904;6.136;2024-01-25T12:28:23;9.60;99.90
12568;DHT22;6349;50.904;6.136;2024-01-25T12:30:23;9.60;99.90
12568;DHT22;6349;50.904;6.136;2024-01-25T12:32:24;9.60;99.90
12568;DHT22;6349;50.904;6.136;2024-01-25T12:34:24;9.60;99.90
12568;DHT22;6349;50.904;6.136;2024-01-25T12:36:25;9.60;99.90
12568;DHT22;6349;50.904;6.136;2024-01-25T12:38:26;9.60;99.90
12568;DHT22;6349;50.904;6.136;2024-01-25T12:40:26;9.60;99.90
12568;DHT22;6349;50.904;6.136;2024-01-25T12:42:27;9.70;99.90
12568;DHT22;6349;50.904;6.136;2024-01-25T12:44:28;9.70;99.90
12568;DHT22;6349;50.904;6.136;2024-01-25T12:46:28;9.70;99.90
12568;DHT22;6349;50.904;6.136;2024-01-25T12:48:29;9.70;99.90
12568;DHT22;6349;50.904;6.136;2024-01-25T12:50:29;9.70;99.90
12568;DHT22;6349;50.904;6.136;2024-01-25T12:52:30;9.70;99.90
12568;DHT22;6349;50.904;6.136;2024-01-25T12:54:31;9.80;99.90
12568;DHT22;6349;50.904;6.136;2024-01-25T12:56:31;9.80;99.90
12568;DHT22;6349;50.904;6.136;2024-01-25T12:58:32;9.80;99.90
12568;DHT22;6349;50.904;6.136;2024-01-25T13:00:32;9.80;99.90
12568;DHT22;6349;50.904;6.136;2024-01-25T13:02:33;9.90;99.90
12568;DHT22;6349;50.904;6.136;2024-01-25T13:04:34;9.90;99.90
12568;DHT22;6349;50.904;6.136;2024-01-25T13:06:34;9.80;99.90
12568;DHT22;6349;50.904;6.136;2024-01-25T13:08:35;9.80;99.90
12568;DHT22;6349;50.904;6.136;2024-01-25T13:10:35;9.80;99.90